createdAt,value
2022-12-04T00:01:28.527Z,12.33
2022-12-04T00:04:00.028Z,12.78
2022-12-04T00:06:30.020Z,12.00
2022-12-04T00:08:59.588Z,13.30
2022-12-04T00:11:31.475Z,10.80
2022-12-04T00:14:07.014Z,11.80
2022-12-04T00:16:33.144Z,11.80
2022-12-04T00:19:03.670Z,12.40
2022-12-04T00:21:32.938Z,11.00
2022-12-04T00:24:02.263Z,11.33
2022-12-04T00:26:31.528Z,15.03
2022-12-04T00:29:04.715Z,10.93
2022-12-04T00:31:34.544Z,12.60
2022-12-04T00:34:08.086Z,11.63
2022-12-04T00:36:35.649Z,14.07
2022-12-04T00:39:05.595Z,10.48
2022-12-04T00:41:35.430Z,10.60
2022-12-04T00:44:05.432Z,9.50
2022-12-04T00:46:34.679Z,14.65
2022-12-04T00:49:04.793Z,11.63
2022-12-04T00:51:34.430Z,14.33
2022-12-04T00:54:04.543Z,12.18
2022-12-04T00:56:33.945Z,11.90
2022-12-04T00:59:03.371Z,11.40
2022-12-04T01:01:33.319Z,12.50
2022-12-04T01:04:04.063Z,10.95
2022-12-04T01:06:34.467Z,13.48
2022-12-04T01:09:04.884Z,13.90
2022-12-04T01:11:34.381Z,11.30
2022-12-04T01:14:03.816Z,13.00
2022-12-04T01:16:37.339Z,11.93
2022-12-04T01:19:09.598Z,14.38
2022-12-04T01:21:38.866Z,13.43
2022-12-04T01:24:08.926Z,12.95
2022-12-04T01:26:37.856Z,12.40
2022-12-04T01:29:07.202Z,12.03
2022-12-04T01:31:37.066Z,15.40
2022-12-04T01:34:06.999Z,16.97
2022-12-04T01:36:36.046Z,14.63
2022-12-04T01:39:05.663Z,13.35
2022-12-04T01:41:35.262Z,15.32
2022-12-04T01:44:20.916Z,11.73
2022-12-04T01:46:54.402Z,15.05
2022-12-04T01:49:35.294Z,11.83
2022-12-04T01:52:20.857Z,13.80
2022-12-04T01:54:54.164Z,14.25
2022-12-04T01:57:26.924Z,12.47
2022-12-04T02:00:00.354Z,14.38
2022-12-04T02:02:40.442Z,10.45
2022-12-04T02:05:16.044Z,12.25
2022-12-04T02:07:46.785Z,12.75
2022-12-04T02:10:17.478Z,15.08
2022-12-04T02:13:01.408Z,13.93
2022-12-04T02:15:48.609Z,15.45
2022-12-04T02:18:50.442Z,12.23
2022-12-04T02:21:39.172Z,12.63
2022-12-04T02:24:29.071Z,12.23
2022-12-04T02:27:08.945Z,12.03
2022-12-04T02:29:55.842Z,13.20
2022-12-04T02:33:07.892Z,12.05
2022-12-04T02:35:41.260Z,11.60
2022-12-04T02:38:38.885Z,9.95
2022-12-04T02:41:13.645Z,10.82
2022-12-04T02:43:46.664Z,11.68
2022-12-04T02:46:21.157Z,14.00
2022-12-04T02:48:54.638Z,10.75
2022-12-04T02:51:24.111Z,13.62
2022-12-04T02:53:58.647Z,9.95
2022-12-04T02:56:30.557Z,11.68
2022-12-04T02:59:07.127Z,13.32
2022-12-04T03:04:19.331Z,11.97
2022-12-04T03:06:53.703Z,13.38
2022-12-04T03:09:34.443Z,13.13
2022-12-04T03:12:18.749Z,14.18
2022-12-04T03:15:01.588Z,13.13
2022-12-04T03:17:39.256Z,14.53
2022-12-04T03:20:11.312Z,12.63
2022-12-04T03:22:44.195Z,14.87
2022-12-04T03:25:14.070Z,13.93
2022-12-04T03:27:54.096Z,11.83
2022-12-04T03:30:24.084Z,11.13
2022-12-04T03:33:10.707Z,11.05
2022-12-04T03:36:03.154Z,13.18
2022-12-04T03:38:58.615Z,12.15
2022-12-04T03:41:33.385Z,11.25
2022-12-04T03:44:08.486Z,12.63
2022-12-04T03:47:06.621Z,11.40
2022-12-04T03:50:00.193Z,16.80
2022-12-04T03:52:52.806Z,14.28
2022-12-04T03:55:54.713Z,13.83
2022-12-04T03:58:28.709Z,14.65
2022-12-04T04:00:59.309Z,13.15
2022-12-04T04:03:32.145Z,12.63
2022-12-04T04:06:12.672Z,13.70
2022-12-04T04:08:45.720Z,18.42
2022-12-04T04:11:21.157Z,15.32
2022-12-04T04:14:26.348Z,11.35
2022-12-04T04:17:20.126Z,15.13
2022-12-04T04:20:19.874Z,15.50
2022-12-04T04:23:09.359Z,17.32
2022-12-04T04:25:40.332Z,15.20
2022-12-04T04:28:41.759Z,16.55
2022-12-04T04:31:19.402Z,14.20
2022-12-04T04:34:22.793Z,13.80
2022-12-04T04:37:06.452Z,14.87
2022-12-04T04:39:53.093Z,12.37
2022-12-04T04:42:35.758Z,13.00
2022-12-04T04:45:28.345Z,15.80
2022-12-04T04:48:09.016Z,16.80
2022-12-04T04:50:38.375Z,17.15
2022-12-04T04:53:16.285Z,12.90
2022-12-04T04:55:46.051Z,13.62
2022-12-04T04:58:19.899Z,12.60
2022-12-04T05:01:03.789Z,15.75
2022-12-04T05:03:33.224Z,14.23
2022-12-04T05:06:02.959Z,17.95
2022-12-04T05:08:32.747Z,12.65
2022-12-04T05:11:02.504Z,14.33
2022-12-04T05:13:31.922Z,13.58
2022-12-04T05:16:03.944Z,16.55
2022-12-04T05:18:34.785Z,15.50
2022-12-04T05:21:18.770Z,15.72
2022-12-04T05:23:50.190Z,14.15
2022-12-04T05:26:19.210Z,14.55
2022-12-04T05:28:48.745Z,13.68
2022-12-04T05:31:18.353Z,14.50
2022-12-04T05:33:48.057Z,14.73
2022-12-04T05:36:19.988Z,18.20
2022-12-04T05:38:50.227Z,17.15
2022-12-04T05:41:21.303Z,13.98
2022-12-04T05:43:51.016Z,13.45
2022-12-04T05:46:20.507Z,11.85
2022-12-04T05:48:50.357Z,15.90
2022-12-04T05:51:19.480Z,13.78
2022-12-04T05:53:50.673Z,12.63
2022-12-04T05:56:19.770Z,16.05
2022-12-04T05:58:49.217Z,12.63
2022-12-04T06:01:22.355Z,12.82
2022-12-04T06:03:51.753Z,11.78
2022-12-04T06:06:26.000Z,13.75
2022-12-04T06:08:57.947Z,15.40
2022-12-04T06:11:30.859Z,13.43
2022-12-04T06:14:01.332Z,15.10
2022-12-04T06:16:38.254Z,15.25
2022-12-04T06:19:16.681Z,18.80
2022-12-04T06:21:48.349Z,17.23
2022-12-04T06:24:23.928Z,13.05
2022-12-04T06:27:26.265Z,13.83
2022-12-04T06:29:30.364Z,12.93
2022-12-04T06:32:00.160Z,14.75
2022-12-04T06:34:29.883Z,13.75
2022-12-04T06:36:58.994Z,14.73
2022-12-04T06:39:28.419Z,15.28
2022-12-04T06:41:58.323Z,15.28
2022-12-04T06:44:28.047Z,16.62
2022-12-04T06:47:00.759Z,15.18
2022-12-04T06:49:29.021Z,16.07
2022-12-04T06:51:58.388Z,14.90
2022-12-04T06:54:28.201Z,13.03
2022-12-04T06:56:57.238Z,11.90
2022-12-04T06:59:26.177Z,12.15
2022-12-04T07:01:57.499Z,12.28
2022-12-04T07:04:26.830Z,13.62
2022-12-04T07:06:56.510Z,14.78
2022-12-04T07:09:27.930Z,14.00
2022-12-04T07:11:57.877Z,15.08
2022-12-04T07:14:27.401Z,13.13
2022-12-04T07:16:56.767Z,17.20
2022-12-04T07:19:25.863Z,16.10
2022-12-04T07:21:55.133Z,14.47
2022-12-04T07:24:24.520Z,15.58
2022-12-04T07:26:54.216Z,15.35
2022-12-04T07:29:23.855Z,14.93
2022-12-04T07:31:53.378Z,15.23
2022-12-04T07:34:22.747Z,15.30
2022-12-04T07:36:52.891Z,14.38
2022-12-04T07:39:23.057Z,16.67
2022-12-04T07:41:52.553Z,15.85
2022-12-04T07:44:22.563Z,12.13
2022-12-04T07:46:53.412Z,12.63
2022-12-04T07:49:23.106Z,14.90
2022-12-04T07:51:52.618Z,14.30
2022-12-04T07:54:22.219Z,11.08
2022-12-04T07:56:51.399Z,14.35
2022-12-04T07:59:20.914Z,15.03
2022-12-04T08:01:50.426Z,13.70
2022-12-04T08:04:19.982Z,13.30
2022-12-04T08:06:49.510Z,15.98
2022-12-04T08:09:19.810Z,14.35
2022-12-04T08:11:48.924Z,14.58
2022-12-04T08:14:18.587Z,18.07
2022-12-04T08:16:52.828Z,15.15
2022-12-04T08:19:22.403Z,15.00
2022-12-04T08:21:51.684Z,16.17
2022-12-04T08:24:21.203Z,14.73
2022-12-04T08:26:50.497Z,13.10
2022-12-04T08:29:20.140Z,13.57
2022-12-04T08:31:49.458Z,12.75
2022-12-04T08:34:18.829Z,13.78
2022-12-04T08:36:48.583Z,14.45
2022-12-04T08:39:18.977Z,13.55
2022-12-04T08:41:52.425Z,19.32
2022-12-04T08:44:20.510Z,13.72
2022-12-04T08:46:49.835Z,14.03
2022-12-04T08:49:21.129Z,12.47
2022-12-04T08:51:50.352Z,18.32
2022-12-04T08:54:20.463Z,12.73
2022-12-04T08:56:50.455Z,13.70
2022-12-04T08:59:19.756Z,13.80
2022-12-04T09:01:51.730Z,11.93
2022-12-04T09:04:22.054Z,11.10
2022-12-04T09:06:52.561Z,13.03
2022-12-04T09:09:24.275Z,10.13
2022-12-04T09:11:54.182Z,14.03
2022-12-04T09:14:25.539Z,13.88
2022-12-04T09:16:55.028Z,11.75
2022-12-04T09:19:24.863Z,12.85
2022-12-04T09:21:54.378Z,14.63
2022-12-04T09:24:24.708Z,12.05
2022-12-04T09:26:54.094Z,15.68
2022-12-04T09:29:25.512Z,11.18
2022-12-04T09:31:58.250Z,11.48
2022-12-04T09:34:28.413Z,12.43
2022-12-04T09:36:58.309Z,10.85
2022-12-04T09:39:28.227Z,11.35
2022-12-04T09:42:18.301Z,11.20
2022-12-04T09:45:15.232Z,13.75
2022-12-04T09:47:48.030Z,10.40
2022-12-04T09:50:42.035Z,12.78
2022-12-04T09:53:23.105Z,15.15
2022-12-04T09:56:09.560Z,16.15
2022-12-04T09:59:10.944Z,15.38
2022-12-04T10:01:48.721Z,13.28
2022-12-04T10:04:18.164Z,14.45
2022-12-04T10:07:35.895Z,12.05
2022-12-04T10:10:37.998Z,10.75
2022-12-04T10:13:13.554Z,12.95
2022-12-04T10:16:01.960Z,13.40
2022-12-04T10:21:34.094Z,16.07
2022-12-04T10:24:21.315Z,13.00
2022-12-04T10:26:51.324Z,10.43
2022-12-04T10:29:31.986Z,16.60
2022-12-04T10:32:35.657Z,13.72
2022-12-04T10:35:22.031Z,13.00
2022-12-04T10:38:04.789Z,14.43
2022-12-04T10:40:46.326Z,12.33
2022-12-04T10:43:47.155Z,12.68
2022-12-04T10:46:27.238Z,10.78
2022-12-04T10:49:06.695Z,12.40
2022-12-04T10:51:40.093Z,13.28
2022-12-04T10:54:26.566Z,12.28
2022-12-04T10:57:08.133Z,8.57
2022-12-04T10:59:55.695Z,14.73
2022-12-04T11:02:29.136Z,13.68
2022-12-04T11:05:07.597Z,14.55
2022-12-04T11:07:46.416Z,12.68
2022-12-04T11:10:42.933Z,12.23
2022-12-04T11:13:18.723Z,12.47
2022-12-04T11:15:56.771Z,10.58
2022-12-04T11:18:32.283Z,13.98
2022-12-04T11:21:05.467Z,13.22
2022-12-04T11:23:47.297Z,13.18
2022-12-04T11:26:21.290Z,9.18
2022-12-04T11:28:53.618Z,8.28
2022-12-04T11:31:24.068Z,10.00
2022-12-04T11:33:58.162Z,9.58
2022-12-04T11:36:40.652Z,12.20
2022-12-04T11:39:20.796Z,10.70
2022-12-04T11:42:16.823Z,9.00
2022-12-04T11:45:20.727Z,7.58
2022-12-04T11:48:00.075Z,6.22
2022-12-04T11:50:40.115Z,8.30
2022-12-04T11:53:24.782Z,8.20
2022-12-04T11:56:08.768Z,13.68
2022-12-04T11:58:45.165Z,8.35
2022-12-04T12:01:43.739Z,7.35
2022-12-04T12:07:45.792Z,9.58
2022-12-04T12:11:01.165Z,12.75
2022-12-04T12:13:42.040Z,7.05
2022-12-04T12:16:26.534Z,7.33
2022-12-04T12:19:26.761Z,8.70
2022-12-04T12:22:24.782Z,7.97
2022-12-04T12:25:20.187Z,10.38
2022-12-04T12:28:24.203Z,7.78
2022-12-04T12:31:39.194Z,9.30
2022-12-04T12:34:28.656Z,9.58
2022-12-04T12:37:01.052Z,6.35
2022-12-04T12:39:41.442Z,9.28
2022-12-04T12:42:23.762Z,10.15
2022-12-04T12:45:01.384Z,5.95
2022-12-04T12:47:38.975Z,11.68
2022-12-04T12:50:19.014Z,6.70
2022-12-04T12:53:01.507Z,5.35
2022-12-04T12:55:36.254Z,10.60
2022-12-04T12:58:29.086Z,10.10
2022-12-04T13:01:36.101Z,6.87
2022-12-04T13:04:13.863Z,6.78
2022-12-04T13:06:45.600Z,8.30
2022-12-04T13:09:25.233Z,6.85
2022-12-04T13:12:02.783Z,6.60
2022-12-04T13:14:32.518Z,6.05
2022-12-04T13:17:10.561Z,7.78
2022-12-04T13:19:53.306Z,11.60
2022-12-04T13:22:52.073Z,10.68
2022-12-04T13:25:46.388Z,6.42
2022-12-04T13:28:34.834Z,6.22
2022-12-04T13:31:25.052Z,8.95
2022-12-04T13:34:25.458Z,6.70
2022-12-04T13:37:23.748Z,6.53
2022-12-04T13:40:30.803Z,7.20
2022-12-04T13:43:32.858Z,4.87
2022-12-04T13:46:25.383Z,8.95
2022-12-04T13:48:55.004Z,7.12
2022-12-04T13:51:37.037Z,6.35
2022-12-04T13:54:17.907Z,8.28
2022-12-04T13:56:52.830Z,9.50
2022-12-04T13:59:31.019Z,7.47
2022-12-04T14:02:07.959Z,7.12
2022-12-04T14:04:40.990Z,10.08
2022-12-04T14:07:32.965Z,6.85
2022-12-04T14:10:19.662Z,6.10
2022-12-04T14:13:09.824Z,9.08
2022-12-04T14:15:41.911Z,6.62
2022-12-04T14:18:29.917Z,7.03
2022-12-04T14:21:04.864Z,6.20
2022-12-04T14:23:38.264Z,5.83
2022-12-04T14:26:21.242Z,8.20
2022-12-04T14:28:51.188Z,8.53
2022-12-04T14:31:38.065Z,9.80
2022-12-04T14:34:24.259Z,5.78
2022-12-04T14:36:54.476Z,7.85
2022-12-04T14:39:34.285Z,10.05
2022-12-04T14:42:19.918Z,5.28
2022-12-04T14:44:58.888Z,7.67
2022-12-04T14:48:18.032Z,6.53
2022-12-04T14:51:31.196Z,6.35
2022-12-04T14:54:41.846Z,6.22
2022-12-04T14:57:29.657Z,5.20
2022-12-04T15:00:00.696Z,6.90
2022-12-04T15:02:41.878Z,8.40
2022-12-04T15:05:22.426Z,5.90
2022-12-04T15:07:55.277Z,6.25
2022-12-04T15:10:47.696Z,6.58
2022-12-04T15:13:34.002Z,11.65
2022-12-04T15:16:21.653Z,12.82
2022-12-04T15:18:59.487Z,7.33
2022-12-04T15:21:38.958Z,7.72
2022-12-04T15:24:10.695Z,7.22
2022-12-04T15:26:40.546Z,6.97
2022-12-04T15:29:11.900Z,9.08
2022-12-04T15:31:45.679Z,9.48
2022-12-04T15:34:17.987Z,8.25
2022-12-04T15:36:51.829Z,5.62
2022-12-04T15:39:24.439Z,7.67
2022-12-04T15:42:15.806Z,7.08
2022-12-04T15:45:01.676Z,8.20
2022-12-04T15:47:44.495Z,8.58
2022-12-04T15:50:26.429Z,7.53
2022-12-04T15:53:13.938Z,11.90
2022-12-04T15:55:55.284Z,7.00
2022-12-04T15:58:39.895Z,9.25
2022-12-04T16:01:11.950Z,9.18
2022-12-04T16:03:49.378Z,7.30
2022-12-04T16:06:33.286Z,5.80
2022-12-04T16:09:24.224Z,8.03
2022-12-04T16:12:20.006Z,7.80
2022-12-04T16:14:51.235Z,9.03
2022-12-04T16:17:22.969Z,5.87
2022-12-04T16:19:51.980Z,6.22
2022-12-04T16:22:23.557Z,6.90
2022-12-04T16:24:53.597Z,7.53
2022-12-04T16:27:23.523Z,6.00
2022-12-04T16:29:53.414Z,7.47
2022-12-04T16:32:28.018Z,8.75
2022-12-04T16:34:57.305Z,9.00
2022-12-04T16:37:28.214Z,12.58
2022-12-04T16:39:57.882Z,7.50
2022-12-04T16:42:29.402Z,7.80
2022-12-04T16:44:59.005Z,10.82
2022-12-04T16:47:29.683Z,7.87
2022-12-04T16:49:58.652Z,7.42
2022-12-04T16:52:28.522Z,8.25
2022-12-04T16:55:03.104Z,5.45
2022-12-04T16:57:29.309Z,6.28
2022-12-04T16:59:59.162Z,6.37
2022-12-04T17:02:28.964Z,6.17
2022-12-04T17:04:58.701Z,6.95
2022-12-04T17:07:27.941Z,9.00
2022-12-04T17:09:57.640Z,4.60
2022-12-04T17:12:27.049Z,7.05
2022-12-04T17:14:57.814Z,10.98
2022-12-04T17:17:27.745Z,7.97
2022-12-04T17:19:57.389Z,5.83
2022-12-04T17:22:27.513Z,8.40
2022-12-04T17:24:58.080Z,13.78
2022-12-04T17:27:27.615Z,5.30
2022-12-04T17:29:56.949Z,5.70
2022-12-04T17:32:27.775Z,7.10
2022-12-04T17:34:57.193Z,8.23
2022-12-04T17:37:26.737Z,7.05
2022-12-04T17:39:56.680Z,5.47
2022-12-04T17:42:25.935Z,7.58
2022-12-04T17:44:56.023Z,9.35
2022-12-04T17:47:26.107Z,6.53
2022-12-04T17:49:55.713Z,6.47
2022-12-04T17:52:25.211Z,7.50
2022-12-04T17:54:55.151Z,8.83
2022-12-04T17:57:24.680Z,4.53
2022-12-04T17:59:54.079Z,8.63
2022-12-04T18:02:23.693Z,7.35
2022-12-04T18:04:55.812Z,7.85
2022-12-04T18:07:25.154Z,7.62
2022-12-04T18:09:54.896Z,6.30
2022-12-04T18:12:24.257Z,6.00
2022-12-04T18:14:54.387Z,9.23
2022-12-04T18:17:23.650Z,6.45
2022-12-04T18:19:53.060Z,9.05
2022-12-04T18:22:23.816Z,7.10
2022-12-04T18:24:54.301Z,7.33
2022-12-04T18:27:23.398Z,5.67
2022-12-04T18:29:54.074Z,8.00
2022-12-04T18:32:23.489Z,7.03
2022-12-04T18:34:54.335Z,7.78
2022-12-04T18:37:23.766Z,12.82
2022-12-04T18:39:52.790Z,6.28
2022-12-04T18:42:21.999Z,8.83
2022-12-04T18:44:51.528Z,5.95
2022-12-04T18:47:20.495Z,5.20
2022-12-04T18:49:49.848Z,9.15
2022-12-04T18:52:19.223Z,6.22
2022-12-04T18:54:48.771Z,8.83
2022-12-04T18:57:18.374Z,4.25
2022-12-04T18:59:49.442Z,9.20
2022-12-04T19:02:18.254Z,7.72
2022-12-04T19:04:47.623Z,7.45
2022-12-04T19:07:18.297Z,5.37
2022-12-04T19:10:21.255Z,7.75
2022-12-04T19:12:18.801Z,7.33
2022-12-04T19:14:47.816Z,5.58
2022-12-04T19:17:17.231Z,7.22
2022-12-04T19:19:46.600Z,5.17
2022-12-04T19:22:16.533Z,15.03
2022-12-04T19:24:46.713Z,7.92
2022-12-04T19:27:18.879Z,5.60
2022-12-04T19:29:48.443Z,8.85
2022-12-04T19:32:17.761Z,8.75
2022-12-04T19:34:49.770Z,4.97
2022-12-04T19:37:19.165Z,5.58
2022-12-04T19:39:48.446Z,6.90
2022-12-04T19:42:18.159Z,10.20
2022-12-04T19:44:49.115Z,7.97
2022-12-04T19:47:19.007Z,6.95
2022-12-04T19:49:48.748Z,6.45
2022-12-04T19:52:18.613Z,7.60
2022-12-04T19:54:48.168Z,6.25
2022-12-04T19:57:17.820Z,7.20
2022-12-04T19:59:47.445Z,8.28
2022-12-04T20:02:19.886Z,6.45
2022-12-04T20:04:50.813Z,5.28
2022-12-04T20:07:20.358Z,5.40
2022-12-04T20:09:52.438Z,8.73
2022-12-04T20:12:21.213Z,5.15
2022-12-04T20:14:50.530Z,8.48
2022-12-04T20:17:20.853Z,7.25
2022-12-04T20:19:50.413Z,5.53
2022-12-04T20:22:20.805Z,7.97
2022-12-04T20:24:51.246Z,7.95
2022-12-04T20:27:23.169Z,12.60
2022-12-04T20:29:52.441Z,7.90
2022-12-04T20:32:21.744Z,6.20
2022-12-04T20:34:51.653Z,6.15
2022-12-04T20:37:21.419Z,9.33
2022-12-04T20:39:50.806Z,7.03
2022-12-04T20:42:20.914Z,7.83
2022-12-04T20:44:54.042Z,10.48
2022-12-04T20:47:25.213Z,6.80
2022-12-04T20:49:55.660Z,6.75
2022-12-04T20:52:26.909Z,5.28
2022-12-04T20:54:56.269Z,8.13
2022-12-04T20:57:25.469Z,6.03
2022-12-04T20:59:55.604Z,8.60
2022-12-04T21:02:25.664Z,10.08
2022-12-04T21:04:55.900Z,8.08
2022-12-04T21:07:26.555Z,8.30
2022-12-04T21:09:57.748Z,7.75
2022-12-04T21:12:45.655Z,6.12
2022-12-04T21:18:03.069Z,5.85
2022-12-04T21:20:33.716Z,5.92
2022-12-04T21:23:02.982Z,7.62
2022-12-04T21:25:32.623Z,5.55
2022-12-04T21:28:02.946Z,5.78
2022-12-04T21:30:33.839Z,7.05
2022-12-04T21:33:03.126Z,5.87
2022-12-04T21:35:32.402Z,7.05
2022-12-04T21:38:01.434Z,10.30
2022-12-04T21:40:36.458Z,7.40
2022-12-04T21:43:04.873Z,8.38
2022-12-04T21:45:34.510Z,5.25
2022-12-04T21:48:03.844Z,9.48
2022-12-04T21:50:33.379Z,4.53
2022-12-04T21:53:04.005Z,9.13
2022-12-04T21:55:33.371Z,8.30
2022-12-04T21:58:03.294Z,6.95
2022-12-04T22:00:32.871Z,6.62
2022-12-04T22:03:03.104Z,6.25
2022-12-04T22:05:33.155Z,9.00
2022-12-04T22:08:03.155Z,8.88
2022-12-04T22:10:32.331Z,7.42
2022-12-04T22:13:02.125Z,8.60
2022-12-04T22:15:31.536Z,6.45
2022-12-04T22:18:01.253Z,9.48
2022-12-04T22:20:30.684Z,7.20
2022-12-04T22:23:00.273Z,7.97
2022-12-04T22:25:30.871Z,8.00
2022-12-04T22:28:00.444Z,9.23
2022-12-04T22:30:30.646Z,6.65
2022-12-04T22:32:59.814Z,6.92
2022-12-04T22:35:29.253Z,6.58
2022-12-04T22:37:58.255Z,9.23
2022-12-04T22:40:27.807Z,5.92
2022-12-04T22:42:59.400Z,7.75
2022-12-04T22:45:29.094Z,11.53
2022-12-04T22:47:58.294Z,11.15
2022-12-04T22:50:27.610Z,7.25
2022-12-04T22:52:59.804Z,11.88
2022-12-04T22:55:31.108Z,9.95
2022-12-04T22:58:00.958Z,8.30
2022-12-04T23:00:30.423Z,9.45
2022-12-04T23:02:59.974Z,8.13
2022-12-04T23:05:29.244Z,6.58
2022-12-04T23:07:58.366Z,7.47
2022-12-04T23:10:28.884Z,9.23
2022-12-04T23:12:58.676Z,7.47
2022-12-04T23:15:27.605Z,7.47
2022-12-04T23:17:57.227Z,5.45
2022-12-04T23:20:26.547Z,28.67
2022-12-04T23:22:56.055Z,7.37
2022-12-04T23:25:26.132Z,8.30
2022-12-04T23:27:56.144Z,9.38
2022-12-04T23:30:28.411Z,11.20
2022-12-04T23:32:57.001Z,9.85
2022-12-04T23:35:26.289Z,9.35
2022-12-04T23:37:55.478Z,10.00
2022-12-04T23:40:24.983Z,8.33
2022-12-04T23:42:54.489Z,6.37
2022-12-04T23:45:24.778Z,7.70
2022-12-04T23:47:55.643Z,6.62
2022-12-04T23:50:24.541Z,9.18
2022-12-04T23:52:53.659Z,8.38
2022-12-04T23:55:23.616Z,9.10
2022-12-04T23:57:53.471Z,11.93
